Time;durP1;ratioP1;P1;durP2;ratioP2;P2;SDS_P1;SDS_P2;PMS_P1;PMS_P2;Temp;Humidity;BMP_temperature;BMP_pressure;BME280_temperature;BME280_humidity;BME280_pressure;Samples;Min_cycle;Max_cycle;Signal;HPM_P1;HPM_P2
2021/09/18 00:00:22;;;;;;;17.88;6.43;;;;;;;;;;10280146;28;20041;-64
2021/09/18 00:05:20;;;;;;;12.27;5.75;;;;;;;;;;10287698;28;20045;-64
2021/09/18 00:10:20;;;;;;;15.02;5.28;;;;;;;;;;10299888;28;20045;-64
2021/09/18 00:15:18;;;;;;;17.20;7.18;;;;;;;;;;10281103;28;20056;-65
2021/09/18 00:20:16;;;;;;;17.85;7.30;;;;;;;;;;10279678;28;20490;-65
2021/09/18 00:25:15;;;;;;;15.00;6.68;;;;;;;;;;10279255;28;20072;-65
2021/09/18 00:30:15;;;;;;;24.30;6.35;;;;;;;;;;10279726;28;20048;-65
2021/09/18 00:35:13;;;;;;;12.85;5.88;;;;;;;;;;10279110;28;20438;-65
2021/09/18 00:40:12;;;;;;;16.67;5.70;;;;;;;;;;10278697;28;20041;-65
2021/09/18 00:45:10;;;;;;;16.83;5.72;;;;;;;;;;10277891;28;20080;-65
2021/09/18 00:50:10;;;;;;;18.17;6.63;;;;;;;;;;10278387;28;20445;-65
2021/09/18 00:55:09;;;;;;;24.40;5.38;;;;;;;;;;10278070;28;20052;-65
2021/09/18 01:00:09;;;;;;;9.40;5.30;;;;;;;;;;10277332;28;20076;-65
2021/09/18 01:05:09;;;;;;;13.65;5.53;;;;;;;;;;10277671;28;20474;-65
2021/09/18 01:10:09;;;;;;;15.45;5.90;;;;;;;;;;10277276;28;20045;-65
2021/09/18 01:15:08;;;;;;;16.05;5.43;;;;;;;;;;10277139;28;20052;-65
2021/09/18 01:20:07;;;;;;;13.45;4.75;;;;;;;;;;10277162;28;20044;-65
2021/09/18 01:25:07;;;;;;;18.20;5.90;;;;;;;;;;10276917;28;20084;-65
2021/09/18 01:30:05;;;;;;;15.70;5.03;;;;;;;;;;10277150;28;20041;-65
2021/09/18 01:35:04;;;;;;;11.82;5.97;;;;;;;;;;10276916;28;20048;-65
2021/09/18 01:40:03;;;;;;;10.05;4.85;;;;;;;;;;10276571;28;20049;-64
2021/09/18 01:45:03;;;;;;;14.55;5.68;;;;;;;;;;10276308;28;20072;-65
2021/09/18 01:50:01;;;;;;;17.50;5.57;;;;;;;;;;10275889;28;20087;-65
2021/09/18 01:54:59;;;;;;;15.02;4.97;;;;;;;;;;10275908;28;20434;-65
2021/09/18 01:59:58;;;;;;;11.77;3.95;;;;;;;;;;10276005;28;20508;-65
2021/09/18 02:04:57;;;;;;;15.68;5.05;;;;;;;;;;10275949;28;20068;-65
2021/09/18 02:09:56;;;;;;;11.20;5.13;;;;;;;;;;10275755;28;20409;-65
2021/09/18 02:14:54;;;;;;;13.18;5.25;;;;;;;;;;10276163;28;20442;-65
2021/09/18 02:19:52;;;;;;;13.02;5.32;;;;;;;;;;10275613;28;20049;-64
2021/09/18 02:24:52;;;;;;;15.05;6.60;;;;;;;;;;10279789;28;20085;-64
2021/09/18 02:29:50;;;;;;;19.60;5.32;;;;;;;;;;10283458;28;20080;-64
2021/09/18 02:34:49;;;;;;;16.70;6.32;;;;;;;;;;10283695;28;20049;-66
2021/09/18 02:39:47;;;;;;;15.55;5.78;;;;;;;;;;10282492;28;20089;-65
2021/09/18 02:44:47;;;;;;;14.95;5.90;;;;;;;;;;10283321;28;20111;-66
2021/09/18 02:49:45;;;;;;;12.95;5.97;;;;;;;;;;10282690;28;20053;-64
2021/09/18 02:54:43;;;;;;;14.27;6.25;;;;;;;;;;10282812;28;20056;-64
2021/09/18 02:59:42;;;;;;;13.65;5.80;;;;;;;;;;10282240;28;20056;-64
2021/09/18 03:04:41;;;;;;;9.38;5.78;;;;;;;;;;10282254;28;20495;-64
2021/09/18 03:09:40;;;;;;;13.18;6.25;;;;;;;;;;10282282;28;20032;-65
2021/09/18 03:14:38;;;;;;;21.65;6.55;;;;;;;;;;10281906;28;20048;-65
2021/09/18 03:19:36;;;;;;;13.95;5.47;;;;;;;;;;10281624;28;20414;-64
2021/09/18 03:24:36;;;;;;;14.68;6.05;;;;;;;;;;10281350;28;20083;-64
2021/09/18 03:29:34;;;;;;;15.25;5.65;;;;;;;;;;10281617;28;20052;-65
2021/09/18 03:34:33;;;;;;;14.07;5.53;;;;;;;;;;10299462;28;20072;-65
2021/09/18 03:39:31;;;;;;;14.90;6.32;;;;;;;;;;10281585;28;20040;-64
2021/09/18 03:44:31;;;;;;;9.70;5.75;;;;;;;;;;10281655;28;20088;-64
2021/09/18 03:49:29;;;;;;;12.38;6.15;;;;;;;;;;10280258;28;20076;-64
2021/09/18 03:54:27;;;;;;;14.02;5.72;;;;;;;;;;10280264;28;20405;-65
2021/09/18 03:59:26;;;;;;;15.27;7.15;;;;;;;;;;10280175;28;20076;-64
2021/09/18 04:04:25;;;;;;;11.18;6.18;;;;;;;;;;10279896;28;20084;-63
2021/09/18 04:09:24;;;;;;;13.70;6.55;;;;;;;;;;10279497;28;20087;-63
2021/09/18 04:14:22;;;;;;;12.48;5.70;;;;;;;;;;10279341;28;20355;-63
2021/09/18 04:19:20;;;;;;;15.00;6.55;;;;;;;;;;10279073;28;20080;-64
2021/09/18 04:24:20;;;;;;;15.45;8.05;;;;;;;;;;10279170;28;20103;-64
2021/09/18 04:29:18;;;;;;;15.57;7.85;;;;;;;;;;10278760;28;20052;-64
2021/09/18 04:34:17;;;;;;;15.02;6.88;;;;;;;;;;10278673;28;20052;-63
2021/09/18 04:39:15;;;;;;;12.48;7.63;;;;;;;;;;10278319;28;20055;-64
2021/09/18 04:44:15;;;;;;;9.95;8.15;;;;;;;;;;10278282;28;20494;-64
2021/09/18 04:49:13;;;;;;;11.80;7.25;;;;;;;;;;10278082;28;20430;-64
2021/09/18 04:54:11;;;;;;;10.10;6.68;;;;;;;;;;10277624;28;20079;-64
2021/09/18 04:59:09;;;;;;;16.75;7.50;;;;;;;;;;10277751;28;20482;-64
2021/09/18 05:04:09;;;;;;;15.60;11.45;;;;;;;;;;10277110;28;20089;-64
2021/09/18 05:09:08;;;;;;;18.45;12.23;;;;;;;;;;10277544;28;20056;-64
2021/09/18 05:14:06;;;;;;;10.13;8.45;;;;;;;;;;10277581;28;20111;-64
2021/09/18 05:19:04;;;;;;;13.10;8.70;;;;;;;;;;10276914;28;20418;-63
2021/09/18 05:24:05;;;;;;;11.88;7.28;;;;;;;;;;10276854;28;20486;-63
2021/09/18 05:29:03;;;;;;;12.95;8.75;;;;;;;;;;10276429;28;20509;-63
2021/09/18 05:34:01;;;;;;;12.98;8.63;;;;;;;;;;10276282;28;20040;-64
2021/09/18 05:38:59;;;;;;;14.30;6.95;;;;;;;;;;10276567;28;20490;-64
2021/09/18 05:43:59;;;;;;;19.00;7.30;;;;;;;;;;10276377;28;20516;-65
2021/09/18 05:48:57;;;;;;;12.98;9.60;;;;;;;;;;10275733;28;20481;-65
2021/09/18 05:53:56;;;;;;;13.45;8.52;;;;;;;;;;10276218;28;20045;-65
2021/09/18 05:58:54;;;;;;;16.83;9.82;;;;;;;;;;10275106;28;20060;-65
2021/09/18 06:03:54;;;;;;;11.90;7.43;;;;;;;;;;10274741;28;20084;-64
2021/09/18 06:08:53;;;;;;;10.82;8.32;;;;;;;;;;10274601;28;20533;-64
2021/09/18 06:13:52;;;;;;;9.88;8.02;;;;;;;;;;10273983;28;20485;-64
2021/09/18 06:18:50;;;;;;;14.82;8.90;;;;;;;;;;10274132;28;20438;-65
2021/09/18 06:23:50;;;;;;;16.00;10.70;;;;;;;;;;10271358;28;20471;-65
2021/09/18 06:28:49;;;;;;;31.95;9.93;;;;;;;;;;10273197;28;20084;-64
2021/09/18 06:33:47;;;;;;;14.43;9.07;;;;;;;;;;10274047;28;20537;-64
2021/09/18 06:38:46;;;;;;;20.92;8.25;;;;;;;;;;10274681;28;20052;-65
2021/09/18 06:43:47;;;;;;;13.35;7.53;;;;;;;;;;10274727;28;20071;-64
2021/09/18 06:48:46;;;;;;;14.98;8.00;;;;;;;;;;10272103;28;20080;-65
2021/09/18 06:53:44;;;;;;;13.30;7.68;;;;;;;;;;10273403;28;20072;-63
2021/09/18 06:58:43;;;;;;;17.92;9.85;;;;;;;;;;10291425;28;20075;-64
2021/09/18 07:03:42;;;;;;;16.02;8.73;;;;;;;;;;10285963;28;20502;-64
2021/09/18 07:08:41;;;;;;;14.20;7.90;;;;;;;;;;10272087;28;20379;-65
2021/09/18 07:13:39;;;;;;;14.38;8.23;;;;;;;;;;10278537;28;20183;-64
2021/09/18 07:18:37;;;;;;;27.23;19.27;;;;;;;;;;10278803;28;20483;-65
2021/09/18 07:23:37;;;;;;;17.42;8.27;;;;;;;;;;10280884;28;20041;-65
2021/09/18 07:28:35;;;;;;;13.95;7.13;;;;;;;;;;10282215;28;20499;-64
2021/09/18 07:33:35;;;;;;;16.23;5.10;;;;;;;;;;10284203;28;20056;-64
2021/09/18 07:38:34;;;;;;;13.35;5.40;;;;;;;;;;10280531;28;20485;-64
2021/09/18 07:43:33;;;;;;;15.23;6.22;;;;;;;;;;10280577;28;20048;-65
2021/09/18 07:48:32;;;;;;;9.82;4.80;;;;;;;;;;10280300;28;20483;-64
2021/09/18 07:53:30;;;;;;;13.45;8.18;;;;;;;;;;10280229;28;20068;-63
2021/09/18 07:58:28;;;;;;;9.18;5.95;;;;;;;;;;10282078;28;20048;-64
2021/09/18 08:03:28;;;;;;;11.80;5.35;;;;;;;;;;10285339;28;20041;-64
2021/09/18 08:08:26;;;;;;;13.43;6.38;;;;;;;;;;10279600;28;20080;-64
2021/09/18 08:13:25;;;;;;;9.20;5.35;;;;;;;;;;10279470;28;20449;-64
2021/09/18 08:18:24;;;;;;;10.00;3.42;;;;;;;;;;10279381;28;20048;-64
2021/09/18 08:23:25;;;;;;;9.07;2.63;;;;;;;;;;10277594;28;20041;-64
2021/09/18 08:28:23;;;;;;;7.45;4.47;;;;;;;;;;10279152;28;20088;-64
2021/09/18 08:33:22;;;;;;;12.88;4.18;;;;;;;;;;10278070;28;20048;-63
2021/09/18 08:38:21;;;;;;;8.55;4.75;;;;;;;;;;10278385;28;20087;-62
2021/09/18 08:43:21;;;;;;;20.33;6.85;;;;;;;;;;10277922;28;20079;-62
2021/09/18 08:48:20;;;;;;;21.58;4.75;;;;;;;;;;10277309;28;20093;-63
2021/09/18 08:53:19;;;;;;;21.02;3.78;;;;;;;;;;10278188;28;20072;-63
2021/09/18 08:58:18;;;;;;;28.85;5.93;;;;;;;;;;10276977;28;20068;-63
2021/09/18 09:03:24;;;;;;;23.33;5.78;;;;;;;;;;10277282;28;20430;-63
2021/09/18 09:08:23;;;;;;;32.60;5.10;;;;;;;;;;10277260;28;20072;-63
2021/09/18 09:13:23;;;;;;;16.17;6.68;;;;;;;;;;10276568;28;20049;-63
2021/09/18 09:18:22;;;;;;;11.73;5.68;;;;;;;;;;10277170;28;20502;-63
2021/09/18 09:23:26;;;;;;;13.80;4.28;;;;;;;;;;10276532;28;20072;-63
2021/09/18 09:28:26;;;;;;;19.27;3.70;;;;;;;;;;10275877;28;20080;-63
2021/09/18 09:33:24;;;;;;;15.30;5.22;;;;;;;;;;10274389;28;20068;-63
2021/09/18 09:38:23;;;;;;;23.77;6.95;;;;;;;;;;10274247;28;20513;-63
2021/09/18 09:43:22;;;;;;;18.13;5.70;;;;;;;;;;10286100;28;20056;-63
2021/09/18 09:48:21;;;;;;;13.13;4.53;;;;;;;;;;10313533;28;20095;-63
2021/09/18 09:53:24;;;;;;;13.65;6.00;;;;;;;;;;10301531;28;20036;-64
2021/09/18 09:58:25;;;;;;;10.67;5.40;;;;;;;;;;10275061;28;20110;-64
2021/09/18 10:03:24;;;;;;;16.77;6.30;;;;;;;;;;10273881;28;20044;-65
2021/09/18 10:08:24;;;;;;;24.65;7.43;;;;;;;;;;10274385;28;20083;-64
2021/09/18 10:13:23;;;;;;;14.27;7.00;;;;;;;;;;10305299;28;20103;-63
2021/09/18 10:18:28;;;;;;;23.67;9.48;;;;;;;;;;10278009;28;20068;-64
2021/09/18 10:23:27;;;;;;;23.58;8.52;;;;;;;;;;10274100;28;20041;-64
2021/09/18 10:28:27;;;;;;;30.67;8.20;;;;;;;;;;10273938;28;20080;-63
2021/09/18 10:33:37;;;;;;;24.35;8.55;;;;;;;;;;10273355;28;20075;-64
2021/09/18 10:38:37;;;;;;;22.80;6.32;;;;;;;;;;10274087;28;20049;-64
2021/09/18 10:43:36;;;;;;;21.83;6.78;;;;;;;;;;10274644;28;20076;-64
2021/09/18 10:48:47;;;;;;;13.75;7.07;;;;;;;;;;10282090;28;20095;-64
2021/09/18 10:54:00;;;;;;;14.20;6.65;;;;;;;;;;10280041;28;20089;-63
2021/09/18 10:59:05;;;;;;;25.88;9.00;;;;;;;;;;10281287;28;20076;-64
2021/09/18 11:04:05;;;;;;;20.95;7.55;;;;;;;;;;10321830;28;20040;-64
2021/09/18 11:09:04;;;;;;;18.95;9.15;;;;;;;;;;10321209;28;20080;-64
2021/09/18 11:14:03;;;;;;;44.90;20.73;;;;;;;;;;10320824;28;20044;-65
2021/09/18 11:19:03;;;;;;;34.80;10.27;;;;;;;;;;10321454;28;20069;-64
2021/09/18 11:24:05;;;;;;;24.75;8.02;;;;;;;;;;10320597;28;20071;-64
2021/09/18 11:29:13;;;;;;;18.63;9.43;;;;;;;;;;10321743;28;20492;-64
2021/09/18 11:34:12;;;;;;;21.00;8.90;;;;;;;;;;10322071;28;20048;-63
2021/09/18 11:39:12;;;;;;;20.23;10.27;;;;;;;;;;10320437;28;20075;-64
2021/09/18 11:44:11;;;;;;;21.25;10.57;;;;;;;;;;10319765;28;20052;-64
2021/09/18 11:49:09;;;;;;;15.57;7.47;;;;;;;;;;10319824;28;20509;-65
2021/09/18 11:54:07;;;;;;;28.27;9.63;;;;;;;;;;10318491;28;20072;-65
2021/09/18 11:59:11;;;;;;;15.57;8.52;;;;;;;;;;10319767;28;20047;-65
2021/09/18 12:04:09;;;;;;;18.03;8.20;;;;;;;;;;10321665;28;20059;-64
2021/09/18 12:09:08;;;;;;;12.05;8.30;;;;;;;;;;10319660;28;20599;-64
2021/09/18 12:14:06;;;;;;;11.07;7.00;;;;;;;;;;10318750;28;20090;-64
2021/09/18 12:19:07;;;;;;;17.85;9.77;;;;;;;;;;10319033;28;20064;-64
2021/09/18 12:24:06;;;;;;;15.88;9.25;;;;;;;;;;10318292;28;20516;-64
2021/09/18 12:29:06;;;;;;;10.35;9.02;;;;;;;;;;10318703;28;20095;-63
2021/09/18 12:34:08;;;;;;;13.05;6.45;;;;;;;;;;10317523;28;20496;-62
2021/09/18 12:39:07;;;;;;;19.60;6.25;;;;;;;;;;10316796;28;20509;-64
2021/09/18 12:44:06;;;;;;;15.57;10.13;;;;;;;;;;10277397;28;20532;-63
2021/09/18 12:49:05;;;;;;;18.50;16.35;;;;;;;;;;10317809;28;20513;-64
2021/09/18 12:54:05;;;;;;;18.92;16.95;;;;;;;;;;10316986;28;20076;-64
2021/09/18 12:59:14;;;;;;;17.60;13.77;;;;;;;;;;10317130;28;20048;-64
2021/09/18 13:04:13;;;;;;;20.05;12.48;;;;;;;;;;10316634;28;20476;-64
2021/09/18 13:09:13;;;;;;;15.15;10.02;;;;;;;;;;10315766;28;20075;-64
2021/09/18 13:14:13;;;;;;;14.00;8.70;;;;;;;;;;10314474;28;20490;-64
2021/09/18 13:19:12;;;;;;;13.48;8.40;;;;;;;;;;10275987;28;20442;-64
2021/09/18 13:24:10;;;;;;;13.98;9.80;;;;;;;;;;10275876;28;20072;-64
2021/09/18 13:29:10;;;;;;;15.27;11.13;;;;;;;;;;10275509;28;20087;-64
2021/09/18 13:34:09;;;;;;;20.73;18.17;;;;;;;;;;10275366;28;20103;-64
2021/09/18 13:39:07;;;;;;;21.83;12.60;;;;;;;;;;10275771;28;20056;-65
2021/09/18 13:44:06;;;;;;;24.55;10.55;;;;;;;;;;10275349;28;20080;-64
2021/09/18 13:49:05;;;;;;;13.15;9.75;;;;;;;;;;10274178;28;20089;-65
2021/09/18 13:54:04;;;;;;;18.15;10.88;;;;;;;;;;10274234;28;20076;-64
2021/09/18 13:59:02;;;;;;;23.30;11.75;;;;;;;;;;10273966;28;20037;-63
2021/09/18 14:04:00;;;;;;;19.80;9.57;;;;;;;;;;10272869;28;20533;-63
2021/09/18 14:09:00;;;;;;;14.85;9.18;;;;;;;;;;10273991;28;20080;-63
2021/09/18 14:13:59;;;;;;;17.60;9.90;;;;;;;;;;10278557;28;20080;-64
2021/09/18 14:18:57;;;;;;;16.73;8.63;;;;;;;;;;10277119;28;20049;-63
2021/09/18 14:23:55;;;;;;;26.23;12.00;;;;;;;;;;10282969;28;20081;-64
2021/09/18 14:28:55;;;;;;;12.95;10.70;;;;;;;;;;10282768;28;20084;-63
2021/09/18 14:33:55;;;;;;;21.90;13.05;;;;;;;;;;10281908;28;20064;-65
2021/09/18 14:39:09;;;;;;;20.05;12.57;;;;;;;;;;10283997;28;20556;-65
2021/09/18 14:44:08;;;;;;;25.25;19.45;;;;;;;;;;10321877;28;20040;-66
2021/09/18 14:49:07;;;;;;;27.52;17.13;;;;;;;;;;10322133;28;20514;-64
2021/09/18 14:54:05;;;;;;;23.45;10.25;;;;;;;;;;10321991;28;20071;-63
2021/09/18 14:59:03;;;;;;;20.38;11.18;;;;;;;;;;10321944;28;20142;-64
2021/09/18 15:04:03;;;;;;;16.77;10.73;;;;;;;;;;10320802;28;20076;-64
2021/09/18 15:09:02;;;;;;;26.75;11.32;;;;;;;;;;10281448;28;20076;-64
2021/09/18 15:14:00;;;;;;;22.92;10.93;;;;;;;;;;10321109;28;20461;-65
2021/09/18 15:18:58;;;;;;;18.60;10.05;;;;;;;;;;10321121;28;20071;-65
2021/09/18 15:23:58;;;;;;;14.35;8.85;;;;;;;;;;10321081;28;20041;-64
2021/09/18 15:28:56;;;;;;;12.00;8.07;;;;;;;;;;10321095;28;20072;-65
2021/09/18 15:33:55;;;;;;;17.52;9.13;;;;;;;;;;10349987;28;20033;-65
2021/09/18 15:38:53;;;;;;;21.13;10.82;;;;;;;;;;10328144;28;20037;-65
2021/09/18 15:43:54;;;;;;;14.63;8.50;;;;;;;;;;10312945;28;20075;-65
2021/09/18 15:48:53;;;;;;;23.02;11.68;;;;;;;;;;10317908;28;20088;-65
2021/09/18 15:53:51;;;;;;;21.35;10.45;;;;;;;;;;10320293;28;20080;-65
2021/09/18 15:58:49;;;;;;;14.45;6.80;;;;;;;;;;10319452;28;20493;-65
2021/09/18 16:03:49;;;;;;;16.33;8.00;;;;;;;;;;10347276;28;20037;-65
2021/09/18 16:08:48;;;;;;;22.20;8.10;;;;;;;;;;10320372;28;20080;-65
2021/09/18 16:13:46;;;;;;;20.65;9.05;;;;;;;;;;10320298;28;20072;-65
2021/09/18 16:18:44;;;;;;;14.30;8.18;;;;;;;;;;10320786;28;20281;-65
2021/09/18 16:23:44;;;;;;;22.55;8.32;;;;;;;;;;10319913;28;20048;-65
2021/09/18 16:28:42;;;;;;;12.27;8.90;;;;;;;;;;10319648;28;20087;-65
2021/09/18 16:33:41;;;;;;;14.50;8.20;;;;;;;;;;10317918;28;20080;-65
2021/09/18 16:38:39;;;;;;;13.50;8.15;;;;;;;;;;10318872;28;20045;-65
2021/09/18 16:43:39;;;;;;;12.65;7.20;;;;;;;;;;10317704;28;20049;-65
2021/09/18 16:48:37;;;;;;;11.57;7.68;;;;;;;;;;10318727;28;20087;-65
2021/09/18 16:53:36;;;;;;;12.25;6.85;;;;;;;;;;10319200;28;20051;-65
2021/09/18 16:58:34;;;;;;;13.23;6.63;;;;;;;;;;10318974;28;20045;-66
2021/09/18 17:03:34;;;;;;;12.93;7.82;;;;;;;;;;10318246;28;20072;-66
2021/09/18 17:08:32;;;;;;;8.13;7.28;;;;;;;;;;10318351;28;20044;-65
2021/09/18 17:13:31;;;;;;;12.98;7.57;;;;;;;;;;10318154;28;20048;-65
2021/09/18 17:18:29;;;;;;;11.05;6.57;;;;;;;;;;10317555;28;20044;-66
2021/09/18 17:23:29;;;;;;;8.48;6.88;;;;;;;;;;10316262;28;20036;-64
2021/09/18 17:28:27;;;;;;;7.82;5.65;;;;;;;;;;10317087;28;20298;-64
2021/09/18 17:33:25;;;;;;;6.43;5.32;;;;;;;;;;10317487;28;20041;-64
2021/09/18 17:38:23;;;;;;;15.05;5.35;;;;;;;;;;10316690;28;20083;-64
2021/09/18 17:43:25;;;;;;;8.95;5.30;;;;;;;;;;10316435;28;20044;-65
2021/09/18 17:48:23;;;;;;;8.98;6.10;;;;;;;;;;10316197;28;20425;-63
2021/09/18 17:53:22;;;;;;;7.57;5.22;;;;;;;;;;10315579;28;20466;-64
2021/09/18 17:58:20;;;;;;;7.72;5.20;;;;;;;;;;10316044;28;20033;-65
2021/09/18 18:03:20;;;;;;;5.82;4.53;;;;;;;;;;10315987;28;20052;-64
2021/09/18 18:08:19;;;;;;;9.30;5.05;;;;;;;;;;10316485;28;20480;-64
2021/09/18 18:13:17;;;;;;;8.23;5.03;;;;;;;;;;10315933;28;20044;-64
2021/09/18 18:18:15;;;;;;;11.68;4.47;;;;;;;;;;10315745;28;20055;-64
2021/09/18 18:23:15;;;;;;;11.30;5.30;;;;;;;;;;10314891;28;20248;-64
2021/09/18 18:28:13;;;;;;;5.20;4.68;;;;;;;;;;10315592;28;20045;-64
2021/09/18 18:33:12;;;;;;;6.95;4.05;;;;;;;;;;10315817;28;20517;-64
2021/09/18 18:38:11;;;;;;;10.32;4.63;;;;;;;;;;10315321;28;20510;-64
2021/09/18 18:43:10;;;;;;;8.45;4.38;;;;;;;;;;10315011;28;20051;-64
2021/09/18 18:48:09;;;;;;;7.10;4.50;;;;;;;;;;10315121;28;22395;-65
2021/09/18 18:53:08;;;;;;;5.90;4.50;;;;;;;;;;10315303;28;20095;-64
2021/09/18 18:58:07;;;;;;;6.90;4.10;;;;;;;;;;10315035;28;20055;-64
2021/09/18 19:03:06;;;;;;;5.57;3.83;;;;;;;;;;10274557;28;20037;-64
2021/09/18 19:08:06;;;;;;;12.50;5.82;;;;;;;;;;10295435;28;20052;-65
2021/09/18 19:13:05;;;;;;;6.53;4.07;;;;;;;;;;10301597;28;20069;-65
2021/09/18 19:18:04;;;;;;;10.30;3.95;;;;;;;;;;10282778;28;20087;-65
2021/09/18 19:23:04;;;;;;;6.25;5.03;;;;;;;;;;10281084;28;20422;-64
2021/09/18 19:28:03;;;;;;;8.05;4.00;;;;;;;;;;10280993;28;20056;-65
2021/09/18 19:33:02;;;;;;;5.97;3.90;;;;;;;;;;10282350;28;20069;-65
2021/09/18 19:38:00;;;;;;;5.85;3.92;;;;;;;;;;10286179;28;20072;-65
2021/09/18 19:43:01;;;;;;;7.55;4.13;;;;;;;;;;10280889;28;20056;-64
2021/09/18 19:47:59;;;;;;;5.93;3.85;;;;;;;;;;10280100;28;20053;-65
2021/09/18 19:52:57;;;;;;;6.95;4.28;;;;;;;;;;10280029;28;20481;-64
2021/09/18 19:57:57;;;;;;;11.60;4.03;;;;;;;;;;10279682;28;20053;-64
2021/09/18 20:02:57;;;;;;;12.45;3.65;;;;;;;;;;10302203;28;20048;-65
2021/09/18 20:07:56;;;;;;;4.50;3.35;;;;;;;;;;10282951;28;20426;-64
2021/09/18 20:12:54;;;;;;;6.60;3.90;;;;;;;;;;10279798;28;20194;-64
2021/09/18 20:17:54;;;;;;;5.53;4.00;;;;;;;;;;10279054;28;20080;-64
2021/09/18 20:22:54;;;;;;;4.47;4.03;;;;;;;;;;10288333;28;20073;-64
2021/09/18 20:27:52;;;;;;;4.70;4.18;;;;;;;;;;10293893;28;20053;-64
2021/09/18 20:32:51;;;;;;;7.47;4.28;;;;;;;;;;10278556;28;20084;-64
2021/09/18 20:37:49;;;;;;;8.93;4.47;;;;;;;;;;10278545;28;20049;-64
2021/09/18 20:42:49;;;;;;;10.90;5.63;;;;;;;;;;10278719;28;20084;-64
2021/09/18 20:47:48;;;;;;;5.57;5.07;;;;;;;;;;10278580;28;20049;-64
2021/09/18 20:52:46;;;;;;;7.75;4.72;;;;;;;;;;10278459;28;20077;-64
2021/09/18 20:57:45;;;;;;;8.35;4.85;;;;;;;;;;10277686;28;20049;-64
2021/09/18 21:08:01;;;;;;;7.70;4.78;;;;;;;;;;10274536;28;20068;-65
2021/09/18 21:13:00;;;;;;;6.90;4.75;;;;;;;;;;10277255;28;20095;-65
2021/09/18 21:18:00;;;;;;;6.57;4.70;;;;;;;;;;10276843;28;20040;-64
2021/09/18 21:22:58;;;;;;;5.32;4.60;;;;;;;;;;10276142;28;20446;-64
2021/09/18 21:27:56;;;;;;;4.68;4.28;;;;;;;;;;10275213;28;20077;-64
2021/09/18 21:32:55;;;;;;;6.43;4.88;;;;;;;;;;10276544;28;20081;-64
2021/09/18 21:37:55;;;;;;;8.30;4.57;;;;;;;;;;10276417;28;20045;-64
2021/09/18 21:42:53;;;;;;;6.57;4.72;;;;;;;;;;10275613;28;20049;-64
2021/09/18 21:47:53;;;;;;;6.13;4.50;;;;;;;;;;10275561;28;20052;-63
2021/09/18 21:52:51;;;;;;;7.28;4.75;;;;;;;;;;10275629;28;20073;-63
2021/09/18 21:57:51;;;;;;;6.10;4.45;;;;;;;;;;10276203;28;20092;-64
2021/09/18 22:02:49;;;;;;;5.68;4.47;;;;;;;;;;10275357;28;20048;-64
2021/09/18 22:07:48;;;;;;;5.45;4.95;;;;;;;;;;10275137;28;20498;-64
2021/09/18 22:12:47;;;;;;;5.35;4.82;;;;;;;;;;10275468;28;20090;-64
2021/09/18 22:17:46;;;;;;;7.95;5.72;;;;;;;;;;10275511;28;20056;-64
2021/09/18 22:22:45;;;;;;;8.77;5.30;;;;;;;;;;10274944;28;20057;-64
2021/09/18 22:27:43;;;;;;;6.63;5.93;;;;;;;;;;10274809;28;20037;-64
2021/09/18 22:32:41;;;;;;;15.00;6.22;;;;;;;;;;10274976;28;20083;-64
2021/09/18 22:37:41;;;;;;;12.35;5.70;;;;;;;;;;10275350;28;20048;-64
2021/09/18 22:42:39;;;;;;;6.47;5.88;;;;;;;;;;10281138;28;20064;-65
2021/09/18 22:47:37;;;;;;;6.70;5.05;;;;;;;;;;10282355;28;20069;-64
2021/09/18 22:52:36;;;;;;;6.18;5.63;;;;;;;;;;10282677;28;20088;-64
2021/09/18 22:57:36;;;;;;;5.32;4.63;;;;;;;;;;10283283;28;20075;-65
2021/09/18 23:02:36;;;;;;;6.45;5.80;;;;;;;;;;10283320;28;20045;-64
2021/09/18 23:07:35;;;;;;;8.00;6.28;;;;;;;;;;10283078;28;20044;-65
2021/09/18 23:12:36;;;;;;;14.60;5.93;;;;;;;;;;10309216;28;20079;-64
2021/09/18 23:17:34;;;;;;;8.10;7.40;;;;;;;;;;10322749;28;20044;-64
2021/09/18 23:22:33;;;;;;;8.35;7.22;;;;;;;;;;10322662;28;20037;-64
2021/09/18 23:27:32;;;;;;;8.70;7.80;;;;;;;;;;10322752;28;20038;-65
2021/09/18 23:32:32;;;;;;;9.32;8.07;;;;;;;;;;10327959;28;20057;-65
2021/09/18 23:37:30;;;;;;;12.00;8.80;;;;;;;;;;10323936;28;20044;-64
2021/09/18 23:42:29;;;;;;;9.18;8.23;;;;;;;;;;10322388;28;20045;-64
2021/09/18 23:47:27;;;;;;;10.05;9.05;;;;;;;;;;10322030;28;20052;-64
2021/09/18 23:52:27;;;;;;;8.75;7.85;;;;;;;;;;10320228;28;20088;-65
2021/09/18 23:57:25;;;;;;;9.05;7.90;;;;;;;;;;10321767;28;20512;-64
